sensor_id;sensor_type;location;lat;lon;timestamp;P1;durP1;ratioP1;P2;durP2;ratioP2
22983;SDS011;11658;48.908;9.140;2023-01-16T04:00:47;1.95;;;0.90;;
22983;SDS011;11658;48.908;9.140;2023-01-16T04:03:27;0.93;;;0.47;;
22983;SDS011;11658;48.908;9.140;2023-01-16T04:06:17;0.87;;;0.30;;
22983;SDS011;11658;48.908;9.140;2023-01-16T04:08:44;2.13;;;0.60;;
22983;SDS011;11658;48.908;9.140;2023-01-16T04:11:11;1.00;;;0.50;;
22983;SDS011;11658;48.908;9.140;2023-01-16T04:13:40;1.47;;;0.60;;
22983;SDS011;11658;48.908;9.140;2023-01-16T04:16:09;0.50;;;0.40;;
22983;SDS011;11658;48.908;9.140;2023-01-16T04:18:39;1.30;;;0.70;;
22983;SDS011;11658;48.908;9.140;2023-01-16T04:21:06;0.73;;;0.53;;
22983;SDS011;11658;48.908;9.140;2023-01-16T04:23:33;0.67;;;0.60;;
22983;SDS011;11658;48.908;9.140;2023-01-16T04:25:59;1.40;;;0.80;;
22983;SDS011;11658;48.908;9.140;2023-01-16T04:28:25;1.77;;;0.60;;
22983;SDS011;11658;48.908;9.140;2023-01-16T04:30:51;1.17;;;0.60;;
22983;SDS011;11658;48.908;9.140;2023-01-16T04:33:20;0.80;;;0.60;;
22983;SDS011;11658;48.908;9.140;2023-01-16T04:35:45;2.43;;;0.70;;
22983;SDS011;11658;48.908;9.140;2023-01-16T04:38:11;1.50;;;0.70;;
22983;SDS011;11658;48.908;9.140;2023-01-16T04:40:37;2.50;;;0.80;;
22983;SDS011;11658;48.908;9.140;2023-01-16T04:43:03;2.60;;;0.90;;
22983;SDS011;11658;48.908;9.140;2023-01-16T04:45:28;3.43;;;2.47;;
22983;SDS011;11658;48.908;9.140;2023-01-16T04:47:54;7.67;;;6.23;;
22983;SDS011;11658;48.908;9.140;2023-01-16T04:50:20;4.33;;;2.93;;
22983;SDS011;11658;48.908;9.140;2023-01-16T04:52:46;5.40;;;3.90;;
22983;SDS011;11658;48.908;9.140;2023-01-16T04:55:12;4.67;;;3.13;;
22983;SDS011;11658;48.908;9.140;2023-01-16T04:57:38;7.93;;;4.30;;
22983;SDS011;11658;48.908;9.140;2023-01-16T05:00:04;5.77;;;2.27;;
22983;SDS011;11658;48.908;9.140;2023-01-16T05:02:31;3.33;;;1.97;;
22983;SDS011;11658;48.908;9.140;2023-01-16T05:04:57;3.63;;;2.00;;
22983;SDS011;11658;48.908;9.140;2023-01-16T05:07:23;2.83;;;1.60;;
22983;SDS011;11658;48.908;9.140;2023-01-16T05:09:51;3.70;;;1.90;;
22983;SDS011;11658;48.908;9.140;2023-01-16T05:12:17;4.00;;;2.20;;
22983;SDS011;11658;48.908;9.140;2023-01-16T05:14:42;4.47;;;2.97;;
22983;SDS011;11658;48.908;9.140;2023-01-16T05:17:08;2.30;;;2.10;;
22983;SDS011;11658;48.908;9.140;2023-01-16T05:19:34;3.30;;;2.50;;
22983;SDS011;11658;48.908;9.140;2023-01-16T05:21:59;2.10;;;1.90;;
22983;SDS011;11658;48.908;9.140;2023-01-16T05:24:25;5.00;;;2.50;;
22983;SDS011;11658;48.908;9.140;2023-01-16T05:26:52;1.83;;;1.37;;
22983;SDS011;11658;48.908;9.140;2023-01-16T05:29:18;2.00;;;1.43;;
22983;SDS011;11658;48.908;9.140;2023-01-16T05:31:44;8.73;;;5.60;;
22983;SDS011;11658;48.908;9.140;2023-01-16T05:34:09;5.13;;;2.93;;
22983;SDS011;11658;48.908;9.140;2023-01-16T05:36:35;4.10;;;2.40;;
22983;SDS011;11658;48.908;9.140;2023-01-16T05:39:00;4.27;;;2.40;;
22983;SDS011;11658;48.908;9.140;2023-01-16T05:41:26;7.97;;;5.70;;
22983;SDS011;11658;48.908;9.140;2023-01-16T05:43:52;9.67;;;5.60;;
22983;SDS011;11658;48.908;9.140;2023-01-16T05:46:17;6.67;;;5.20;;
22983;SDS011;11658;48.908;9.140;2023-01-16T05:48:43;2.23;;;1.50;;
22983;SDS011;11658;48.908;9.140;2023-01-16T05:51:08;1.80;;;1.00;;
22983;SDS011;11658;48.908;9.140;2023-01-16T05:53:36;2.50;;;1.10;;
22983;SDS011;11658;48.908;9.140;2023-01-16T05:56:08;3.50;;;1.10;;
22983;SDS011;11658;48.908;9.140;2023-01-16T05:58:35;2.40;;;1.40;;
22983;SDS011;11658;48.908;9.140;2023-01-16T06:01:00;2.50;;;1.10;;
22983;SDS011;11658;48.908;9.140;2023-01-16T06:03:26;3.97;;;1.20;;
22983;SDS011;11658;48.908;9.140;2023-01-16T06:05:52;2.10;;;0.90;;
22983;SDS011;11658;48.908;9.140;2023-01-16T06:08:17;2.03;;;1.00;;
22983;SDS011;11658;48.908;9.140;2023-01-16T06:10:43;2.73;;;0.83;;
22983;SDS011;11658;48.908;9.140;2023-01-16T06:13:10;1.50;;;1.30;;
22983;SDS011;11658;48.908;9.140;2023-01-16T06:15:36;1.00;;;0.90;;
22983;SDS011;11658;48.908;9.140;2023-01-16T06:18:02;1.10;;;0.80;;
22983;SDS011;11658;48.908;9.140;2023-01-16T06:20:27;2.10;;;1.00;;
22983;SDS011;11658;48.908;9.140;2023-01-16T06:22:53;2.60;;;1.03;;
22983;SDS011;11658;48.908;9.140;2023-01-16T06:25:18;1.97;;;0.83;;
22983;SDS011;11658;48.908;9.140;2023-01-16T06:27:48;2.33;;;0.80;;
22983;SDS011;11658;48.908;9.140;2023-01-16T06:30:14;2.77;;;0.70;;
22983;SDS011;11658;48.908;9.140;2023-01-16T06:32:40;4.40;;;0.90;;
22983;SDS011;11658;48.908;9.140;2023-01-16T06:35:06;2.13;;;0.70;;
22983;SDS011;11658;48.908;9.140;2023-01-16T06:37:32;1.43;;;0.80;;
22983;SDS011;11658;48.908;9.140;2023-01-16T06:39:57;1.20;;;0.50;;
22983;SDS011;11658;48.908;9.140;2023-01-16T06:42:25;1.03;;;0.70;;
22983;SDS011;11658;48.908;9.140;2023-01-16T06:44:50;1.90;;;0.70;;
22983;SDS011;11658;48.908;9.140;2023-01-16T06:47:16;4.93;;;0.90;;
22983;SDS011;11658;48.908;9.140;2023-01-16T06:49:41;2.30;;;0.90;;
22983;SDS011;11658;48.908;9.140;2023-01-16T06:52:07;1.43;;;0.83;;
22983;SDS011;11658;48.908;9.140;2023-01-16T06:54:32;3.07;;;0.90;;
22983;SDS011;11658;48.908;9.140;2023-01-16T06:56:58;2.50;;;0.80;;
22983;SDS011;11658;48.908;9.140;2023-01-16T06:59:23;1.53;;;0.87;;
22983;SDS011;11658;48.908;9.140;2023-01-16T07:01:49;3.93;;;0.93;;
22983;SDS011;11658;48.908;9.140;2023-01-16T07:04:15;2.80;;;1.20;;
22983;SDS011;11658;48.908;9.140;2023-01-16T07:06:40;1.57;;;0.77;;
22983;SDS011;11658;48.908;9.140;2023-01-16T07:09:08;2.43;;;0.90;;
22983;SDS011;11658;48.908;9.140;2023-01-16T07:11:34;2.10;;;1.00;;
22983;SDS011;11658;48.908;9.140;2023-01-16T07:14:00;1.20;;;1.00;;
22983;SDS011;11658;48.908;9.140;2023-01-16T07:16:44;3.10;;;1.17;;
22983;SDS011;11658;48.908;9.140;2023-01-16T07:19:28;1.73;;;1.03;;
22983;SDS011;11658;48.908;9.140;2023-01-16T07:22:12;2.40;;;1.20;;
22983;SDS011;11658;48.908;9.140;2023-01-16T07:24:57;1.77;;;1.20;;
22983;SDS011;11658;48.908;9.140;2023-01-16T07:27:24;1.77;;;1.17;;
22983;SDS011;11658;48.908;9.140;2023-01-16T07:29:49;2.40;;;1.50;;
22983;SDS011;11658;48.908;9.140;2023-01-16T07:32:15;1.83;;;1.13;;
22983;SDS011;11658;48.908;9.140;2023-01-16T07:34:41;3.43;;;1.17;;
22983;SDS011;11658;48.908;9.140;2023-01-16T07:37:07;2.07;;;1.20;;
22983;SDS011;11658;48.908;9.140;2023-01-16T07:39:38;2.27;;;1.10;;
22983;SDS011;11658;48.908;9.140;2023-01-16T07:42:04;3.43;;;1.07;;
22983;SDS011;11658;48.908;9.140;2023-01-16T07:44:40;1.67;;;1.00;;
22983;SDS011;11658;48.908;9.140;2023-01-16T07:47:06;1.60;;;1.03;;
22983;SDS011;11658;48.908;9.140;2023-01-16T07:49:31;2.03;;;0.90;;
22983;SDS011;11658;48.908;9.140;2023-01-16T07:51:57;1.90;;;1.03;;
22983;SDS011;11658;48.908;9.140;2023-01-16T07:54:22;2.33;;;1.00;;
22983;SDS011;11658;48.908;9.140;2023-01-16T07:56:48;1.50;;;1.27;;
22983;SDS011;11658;48.908;9.140;2023-01-16T07:59:14;2.07;;;1.10;;
22983;SDS011;11658;48.908;9.140;2023-01-16T08:01:43;1.43;;;1.00;;
22983;SDS011;11658;48.908;9.140;2023-01-16T08:04:10;2.20;;;1.23;;
22983;SDS011;11658;48.908;9.140;2023-01-16T08:06:36;1.83;;;1.23;;
22983;SDS011;11658;48.908;9.140;2023-01-16T08:09:01;3.40;;;1.40;;
22983;SDS011;11658;48.908;9.140;2023-01-16T08:11:27;1.50;;;1.27;;
22983;SDS011;11658;48.908;9.140;2023-01-16T08:14:03;2.10;;;1.20;;
22983;SDS011;11658;48.908;9.140;2023-01-16T08:16:30;2.10;;;1.10;;
22983;SDS011;11658;48.908;9.140;2023-01-16T08:18:56;4.20;;;1.30;;
22983;SDS011;11658;48.908;9.140;2023-01-16T08:21:22;2.23;;;1.37;;
22983;SDS011;11658;48.908;9.140;2023-01-16T08:23:47;3.20;;;1.57;;
22983;SDS011;11658;48.908;9.140;2023-01-16T08:26:13;2.57;;;1.43;;
22983;SDS011;11658;48.908;9.140;2023-01-16T08:28:39;2.00;;;1.33;;
22983;SDS011;11658;48.908;9.140;2023-01-16T08:31:06;3.67;;;1.30;;
22983;SDS011;11658;48.908;9.140;2023-01-16T08:33:40;1.60;;;1.10;;
22983;SDS011;11658;48.908;9.140;2023-01-16T08:36:08;4.43;;;1.30;;
22983;SDS011;11658;48.908;9.140;2023-01-16T08:38:35;2.90;;;1.20;;
22983;SDS011;11658;48.908;9.140;2023-01-16T08:41:01;5.00;;;1.40;;
22983;SDS011;11658;48.908;9.140;2023-01-16T08:43:27;1.77;;;1.10;;
22983;SDS011;11658;48.908;9.140;2023-01-16T08:49:04;1.60;;;1.30;;
22983;SDS011;11658;48.908;9.140;2023-01-16T08:51:52;2.67;;;1.23;;
22983;SDS011;11658;48.908;9.140;2023-01-16T08:54:18;2.40;;;1.17;;
22983;SDS011;11658;48.908;9.140;2023-01-16T08:56:43;2.37;;;1.20;;
22983;SDS011;11658;48.908;9.140;2023-01-16T08:59:09;1.10;;;1.00;;
22983;SDS011;11658;48.908;9.140;2023-01-16T09:01:36;4.23;;;1.10;;
22983;SDS011;11658;48.908;9.140;2023-01-16T09:04:03;2.17;;;0.90;;
22983;SDS011;11658;48.908;9.140;2023-01-16T09:06:29;1.30;;;1.07;;
22983;SDS011;11658;48.908;9.140;2023-01-16T09:08:55;1.37;;;1.00;;
22983;SDS011;11658;48.908;9.140;2023-01-16T09:11:21;2.87;;;1.10;;
22983;SDS011;11658;48.908;9.140;2023-01-16T09:14:05;4.87;;;1.67;;
22983;SDS011;11658;48.908;9.140;2023-01-16T09:16:31;1.23;;;0.80;;
22983;SDS011;11658;48.908;9.140;2023-01-16T09:18:57;3.70;;;1.07;;
22983;SDS011;11658;48.908;9.140;2023-01-16T09:21:23;1.63;;;0.90;;
22983;SDS011;11658;48.908;9.140;2023-01-16T09:23:49;2.63;;;1.07;;
22983;SDS011;11658;48.908;9.140;2023-01-16T09:26:16;1.80;;;1.00;;
22983;SDS011;11658;48.908;9.140;2023-01-16T09:28:42;1.83;;;0.90;;
22983;SDS011;11658;48.908;9.140;2023-01-16T09:31:08;2.30;;;1.00;;
22983;SDS011;11658;48.908;9.140;2023-01-16T09:33:34;1.20;;;0.90;;
22983;SDS011;11658;48.908;9.140;2023-01-16T09:36:01;1.00;;;0.73;;
22983;SDS011;11658;48.908;9.140;2023-01-16T09:38:27;0.93;;;0.53;;
22983;SDS011;11658;48.908;9.140;2023-01-16T09:40:57;1.13;;;0.77;;
22983;SDS011;11658;48.908;9.140;2023-01-16T09:43:36;1.03;;;0.70;;
22983;SDS011;11658;48.908;9.140;2023-01-16T09:46:19;1.23;;;0.73;;
22983;SDS011;11658;48.908;9.140;2023-01-16T09:51:21;2.83;;;0.67;;
22983;SDS011;11658;48.908;9.140;2023-01-16T09:53:56;0.60;;;0.60;;
22983;SDS011;11658;48.908;9.140;2023-01-16T09:56:48;0.53;;;0.53;;
22983;SDS011;11658;48.908;9.140;2023-01-16T09:59:40;2.03;;;0.90;;
22983;SDS011;11658;48.908;9.140;2023-01-16T10:02:20;0.83;;;0.50;;
22983;SDS011;11658;48.908;9.140;2023-01-16T10:04:56;3.30;;;0.70;;
22983;SDS011;11658;48.908;9.140;2023-01-16T10:12:36;1.00;;;0.60;;
22983;SDS011;11658;48.908;9.140;2023-01-16T10:15:09;1.30;;;0.50;;
22983;SDS011;11658;48.908;9.140;2023-01-16T10:26:05;1.37;;;0.90;;
22983;SDS011;11658;48.908;9.140;2023-01-16T10:34:22;1.50;;;0.80;;
22983;SDS011;11658;48.908;9.140;2023-01-16T10:36:53;2.07;;;0.90;;
22983;SDS011;11658;48.908;9.140;2023-01-16T10:39:22;1.47;;;0.77;;
22983;SDS011;11658;48.908;9.140;2023-01-16T10:41:59;1.10;;;0.60;;
22983;SDS011;11658;48.908;9.140;2023-01-16T10:45:10;0.80;;;0.60;;
22983;SDS011;11658;48.908;9.140;2023-01-16T10:48:02;0.73;;;0.30;;
22983;SDS011;11658;48.908;9.140;2023-01-16T10:50:47;0.30;;;0.30;;
22983;SDS011;11658;48.908;9.140;2023-01-16T10:53:13;1.50;;;0.40;;
22983;SDS011;11658;48.908;9.140;2023-01-16T10:55:40;0.77;;;0.40;;
22983;SDS011;11658;48.908;9.140;2023-01-16T11:00:52;0.60;;;0.60;;
22983;SDS011;11658;48.908;9.140;2023-01-16T11:06:15;0.50;;;0.40;;
22983;SDS011;11658;48.908;9.140;2023-01-16T11:09:03;0.83;;;0.40;;
22983;SDS011;11658;48.908;9.140;2023-01-16T11:11:33;0.70;;;0.37;;
22983;SDS011;11658;48.908;9.140;2023-01-16T11:14:21;3.30;;;0.40;;
22983;SDS011;11658;48.908;9.140;2023-01-16T11:17:27;0.50;;;0.40;;
22983;SDS011;11658;48.908;9.140;2023-01-16T11:20:34;1.23;;;0.50;;
22983;SDS011;11658;48.908;9.140;2023-01-16T11:23:12;0.97;;;0.80;;
22983;SDS011;11658;48.908;9.140;2023-01-16T11:25:43;0.73;;;0.70;;
22983;SDS011;11658;48.908;9.140;2023-01-16T11:28:12;1.37;;;0.80;;
22983;SDS011;11658;48.908;9.140;2023-01-16T11:30:46;0.67;;;0.57;;
22983;SDS011;11658;48.908;9.140;2023-01-16T11:33:14;0.83;;;0.50;;
22983;SDS011;11658;48.908;9.140;2023-01-16T11:35:44;0.60;;;0.30;;
22983;SDS011;11658;48.908;9.140;2023-01-16T11:38:22;0.87;;;0.40;;
22983;SDS011;11658;48.908;9.140;2023-01-16T11:40:50;0.40;;;0.40;;
22983;SDS011;11658;48.908;9.140;2023-01-16T11:43:23;0.60;;;0.40;;
22983;SDS011;11658;48.908;9.140;2023-01-16T11:48:53;1.93;;;0.67;;
22983;SDS011;11658;48.908;9.140;2023-01-16T11:51:23;0.90;;;0.50;;
22983;SDS011;11658;48.908;9.140;2023-01-16T11:53:52;0.80;;;0.40;;
22983;SDS011;11658;48.908;9.140;2023-01-16T11:58:56;0.63;;;0.63;;
22983;SDS011;11658;48.908;9.140;2023-01-16T12:04:41;0.50;;;0.50;;
22983;SDS011;11658;48.908;9.140;2023-01-16T12:07:50;0.73;;;0.40;;
22983;SDS011;11658;48.908;9.140;2023-01-16T12:10:32;1.20;;;0.60;;
22983;SDS011;11658;48.908;9.140;2023-01-16T12:13:19;1.37;;;0.60;;
22983;SDS011;11658;48.908;9.140;2023-01-16T12:33:05;1.33;;;0.70;;
22983;SDS011;11658;48.908;9.140;2023-01-16T12:38:18;1.00;;;0.50;;
22983;SDS011;11658;48.908;9.140;2023-01-16T12:40:52;0.20;;;0.20;;
22983;SDS011;11658;48.908;9.140;2023-01-16T12:44:18;0.37;;;0.37;;
22983;SDS011;11658;48.908;9.140;2023-01-16T13:00:11;0.40;;;0.40;;
22983;SDS011;11658;48.908;9.140;2023-01-16T13:02:58;0.33;;;0.30;;
22983;SDS011;11658;48.908;9.140;2023-01-16T13:05:29;0.60;;;0.40;;
22983;SDS011;11658;48.908;9.140;2023-01-16T13:08:03;0.87;;;0.30;;
22983;SDS011;11658;48.908;9.140;2023-01-16T13:10:56;1.07;;;0.50;;
22983;SDS011;11658;48.908;9.140;2023-01-16T13:13:50;1.17;;;0.50;;
22983;SDS011;11658;48.908;9.140;2023-01-16T13:16:32;1.07;;;0.70;;
22983;SDS011;11658;48.908;9.140;2023-01-16T13:19:03;0.30;;;0.30;;
22983;SDS011;11658;48.908;9.140;2023-01-16T13:21:47;0.40;;;0.40;;
22983;SDS011;11658;48.908;9.140;2023-01-16T13:24:32;0.43;;;0.43;;
22983;SDS011;11658;48.908;9.140;2023-01-16T13:27:05;0.50;;;0.30;;
22983;SDS011;11658;48.908;9.140;2023-01-16T13:29:45;0.60;;;0.40;;
22983;SDS011;11658;48.908;9.140;2023-01-16T13:32:25;1.33;;;0.50;;
22983;SDS011;11658;48.908;9.140;2023-01-16T13:34:57;0.53;;;0.27;;
22983;SDS011;11658;48.908;9.140;2023-01-16T13:42:51;0.30;;;0.30;;
22983;SDS011;11658;48.908;9.140;2023-01-16T13:45:43;0.93;;;0.50;;
22983;SDS011;11658;48.908;9.140;2023-01-16T13:48:19;0.40;;;0.30;;
22983;SDS011;11658;48.908;9.140;2023-01-16T13:50:57;1.60;;;0.70;;
22983;SDS011;11658;48.908;9.140;2023-01-16T13:53:25;0.53;;;0.40;;
22983;SDS011;11658;48.908;9.140;2023-01-16T13:56:08;0.50;;;0.47;;
22983;SDS011;11658;48.908;9.140;2023-01-16T13:58:37;1.63;;;0.80;;
22983;SDS011;11658;48.908;9.140;2023-01-16T14:01:05;0.77;;;0.60;;
22983;SDS011;11658;48.908;9.140;2023-01-16T14:03:34;0.47;;;0.40;;
22983;SDS011;11658;48.908;9.140;2023-01-16T14:17:07;0.50;;;0.50;;
22983;SDS011;11658;48.908;9.140;2023-01-16T14:19:37;0.87;;;0.87;;
22983;SDS011;11658;48.908;9.140;2023-01-16T14:22:11;0.67;;;0.60;;
22983;SDS011;11658;48.908;9.140;2023-01-16T14:24:43;0.30;;;0.30;;
22983;SDS011;11658;48.908;9.140;2023-01-16T14:27:15;0.57;;;0.33;;
22983;SDS011;11658;48.908;9.140;2023-01-16T14:29:51;1.13;;;0.50;;
22983;SDS011;11658;48.908;9.140;2023-01-16T14:32:24;0.30;;;0.30;;
22983;SDS011;11658;48.908;9.140;2023-01-16T14:40:03;0.40;;;0.40;;
22983;SDS011;11658;48.908;9.140;2023-01-16T14:42:54;0.70;;;0.50;;
22983;SDS011;11658;48.908;9.140;2023-01-16T14:45:41;0.80;;;0.60;;
22983;SDS011;11658;48.908;9.140;2023-01-16T14:48:45;0.50;;;0.40;;
22983;SDS011;11658;48.908;9.140;2023-01-16T14:54:29;0.20;;;0.10;;
22983;SDS011;11658;48.908;9.140;2023-01-16T14:57:16;0.30;;;0.30;;
22983;SDS011;11658;48.908;9.140;2023-01-16T14:59:51;0.40;;;0.40;;
22983;SDS011;11658;48.908;9.140;2023-01-16T15:02:23;0.40;;;0.30;;
22983;SDS011;11658;48.908;9.140;2023-01-16T15:07:38;1.70;;;0.67;;
22983;SDS011;11658;48.908;9.140;2023-01-16T15:15:48;0.80;;;0.30;;
22983;SDS011;11658;48.908;9.140;2023-01-16T15:18:18;0.60;;;0.50;;
22983;SDS011;11658;48.908;9.140;2023-01-16T15:21:16;0.27;;;0.27;;
22983;SDS011;11658;48.908;9.140;2023-01-16T15:24:02;0.20;;;0.20;;
22983;SDS011;11658;48.908;9.140;2023-01-16T15:26:51;0.80;;;0.40;;
22983;SDS011;11658;48.908;9.140;2023-01-16T15:29:32;0.70;;;0.40;;
22983;SDS011;11658;48.908;9.140;2023-01-16T15:32:03;1.83;;;0.40;;
22983;SDS011;11658;48.908;9.140;2023-01-16T15:34:33;0.40;;;0.40;;
22983;SDS011;11658;48.908;9.140;2023-01-16T15:36:59;0.40;;;0.40;;
22983;SDS011;11658;48.908;9.140;2023-01-16T15:42:09;0.20;;;0.20;;
22983;SDS011;11658;48.908;9.140;2023-01-16T15:53:36;0.50;;;0.50;;
22983;SDS011;11658;48.908;9.140;2023-01-16T15:58:52;0.43;;;0.43;;
22983;SDS011;11658;48.908;9.140;2023-01-16T16:01:26;0.40;;;0.30;;
22983;SDS011;11658;48.908;9.140;2023-01-16T16:03:56;1.80;;;0.50;;
22983;SDS011;11658;48.908;9.140;2023-01-16T16:06:23;1.30;;;1.10;;
22983;SDS011;11658;48.908;9.140;2023-01-16T16:08:50;0.40;;;0.40;;
22983;SDS011;11658;48.908;9.140;2023-01-16T16:11:24;0.30;;;0.30;;
22983;SDS011;11658;48.908;9.140;2023-01-16T16:14:32;1.33;;;0.33;;
22983;SDS011;11658;48.908;9.140;2023-01-16T16:22:57;0.67;;;0.63;;
22983;SDS011;11658;48.908;9.140;2023-01-16T16:25:29;5.00;;;4.60;;
22983;SDS011;11658;48.908;9.140;2023-01-16T16:28:01;0.43;;;0.43;;
22983;SDS011;11658;48.908;9.140;2023-01-16T16:30:54;0.70;;;0.60;;
22983;SDS011;11658;48.908;9.140;2023-01-16T16:33:31;0.57;;;0.50;;
22983;SDS011;11658;48.908;9.140;2023-01-16T16:36:00;0.70;;;0.57;;
22983;SDS011;11658;48.908;9.140;2023-01-16T16:38:29;0.90;;;0.80;;
22983;SDS011;11658;48.908;9.140;2023-01-16T16:41:01;0.57;;;0.40;;
22983;SDS011;11658;48.908;9.140;2023-01-16T16:44:21;0.87;;;0.50;;
22983;SDS011;11658;48.908;9.140;2023-01-16T16:46:56;0.80;;;0.60;;
22983;SDS011;11658;48.908;9.140;2023-01-16T16:51:48;0.40;;;0.40;;
22983;SDS011;11658;48.908;9.140;2023-01-16T16:54:14;0.60;;;0.50;;
22983;SDS011;11658;48.908;9.140;2023-01-16T16:56:46;0.60;;;0.60;;
22983;SDS011;11658;48.908;9.140;2023-01-16T16:59:24;0.40;;;0.40;;
22983;SDS011;11658;48.908;9.140;2023-01-16T17:01:56;0.50;;;0.50;;
22983;SDS011;11658;48.908;9.140;2023-01-16T17:04:29;1.23;;;1.03;;
22983;SDS011;11658;48.908;9.140;2023-01-16T17:06:55;0.50;;;0.50;;
22983;SDS011;11658;48.908;9.140;2023-01-16T17:09:21;0.60;;;0.60;;
22983;SDS011;11658;48.908;9.140;2023-01-16T17:11:51;0.80;;;0.73;;
22983;SDS011;11658;48.908;9.140;2023-01-16T17:14:16;1.40;;;1.10;;
22983;SDS011;11658;48.908;9.140;2023-01-16T17:16:42;2.23;;;1.10;;
22983;SDS011;11658;48.908;9.140;2023-01-16T17:19:22;2.10;;;1.33;;
22983;SDS011;11658;48.908;9.140;2023-01-16T17:21:56;1.87;;;1.33;;
22983;SDS011;11658;48.908;9.140;2023-01-16T17:24:22;2.13;;;1.40;;
22983;SDS011;11658;48.908;9.140;2023-01-16T17:26:48;1.40;;;1.30;;
22983;SDS011;11658;48.908;9.140;2023-01-16T17:29:13;1.33;;;1.13;;
22983;SDS011;11658;48.908;9.140;2023-01-16T17:31:42;2.80;;;1.83;;
22983;SDS011;11658;48.908;9.140;2023-01-16T17:34:12;1.77;;;1.37;;
22983;SDS011;11658;48.908;9.140;2023-01-16T17:36:40;1.37;;;0.97;;
22983;SDS011;11658;48.908;9.140;2023-01-16T17:39:06;1.23;;;1.10;;
22983;SDS011;11658;48.908;9.140;2023-01-16T17:41:32;0.77;;;0.67;;
22983;SDS011;11658;48.908;9.140;2023-01-16T17:44:16;0.70;;;0.70;;
22983;SDS011;11658;48.908;9.140;2023-01-16T17:47:02;0.90;;;0.70;;
22983;SDS011;11658;48.908;9.140;2023-01-16T17:49:29;0.83;;;0.60;;
22983;SDS011;11658;48.908;9.140;2023-01-16T17:51:54;0.70;;;0.60;;
22983;SDS011;11658;48.908;9.140;2023-01-16T17:54:20;0.67;;;0.60;;
22983;SDS011;11658;48.908;9.140;2023-01-16T17:57:04;1.10;;;1.00;;
22983;SDS011;11658;48.908;9.140;2023-01-16T17:59:29;0.80;;;0.80;;
22983;SDS011;11658;48.908;9.140;2023-01-16T18:01:55;1.73;;;1.10;;
22983;SDS011;11658;48.908;9.140;2023-01-16T18:04:21;0.60;;;0.60;;
22983;SDS011;11658;48.908;9.140;2023-01-16T18:06:47;0.70;;;0.70;;
22983;SDS011;11658;48.908;9.140;2023-01-16T18:09:13;0.70;;;0.70;;
22983;SDS011;11658;48.908;9.140;2023-01-16T18:11:40;0.73;;;0.70;;
22983;SDS011;11658;48.908;9.140;2023-01-16T18:14:26;0.70;;;0.70;;
22983;SDS011;11658;48.908;9.140;2023-01-16T18:17:14;1.03;;;0.60;;
22983;SDS011;11658;48.908;9.140;2023-01-16T18:19:49;0.43;;;0.43;;
22983;SDS011;11658;48.908;9.140;2023-01-16T18:22:25;0.50;;;0.50;;
22983;SDS011;11658;48.908;9.140;2023-01-16T18:24:52;0.60;;;0.57;;
22983;SDS011;11658;48.908;9.140;2023-01-16T18:27:19;0.67;;;0.60;;
22983;SDS011;11658;48.908;9.140;2023-01-16T18:29:45;0.70;;;0.70;;
22983;SDS011;11658;48.908;9.140;2023-01-16T18:32:12;1.00;;;0.87;;
22983;SDS011;11658;48.908;9.140;2023-01-16T18:34:45;0.60;;;0.60;;
22983;SDS011;11658;48.908;9.140;2023-01-16T18:37:12;0.80;;;0.50;;
22983;SDS011;11658;48.908;9.140;2023-01-16T18:39:39;0.30;;;0.30;;
22983;SDS011;11658;48.908;9.140;2023-01-16T18:42:23;0.30;;;0.30;;
22983;SDS011;11658;48.908;9.140;2023-01-16T18:45:11;0.93;;;0.50;;
22983;SDS011;11658;48.908;9.140;2023-01-16T18:47:56;0.67;;;0.63;;
22983;SDS011;11658;48.908;9.140;2023-01-16T18:50:40;0.57;;;0.50;;
22983;SDS011;11658;48.908;9.140;2023-01-16T18:53:33;0.70;;;0.60;;
22983;SDS011;11658;48.908;9.140;2023-01-16T18:56:25;0.50;;;0.40;;
22983;SDS011;11658;48.908;9.140;2023-01-16T18:59:13;0.40;;;0.30;;
22983;SDS011;11658;48.908;9.140;2023-01-16T19:02:07;1.50;;;0.30;;
22983;SDS011;11658;48.908;9.140;2023-01-16T19:04:50;0.20;;;0.20;;
22983;SDS011;11658;48.908;9.140;2023-01-16T19:07:17;0.47;;;0.40;;
22983;SDS011;11658;48.908;9.140;2023-01-16T19:09:52;0.93;;;0.57;;
22983;SDS011;11658;48.908;9.140;2023-01-16T19:12:21;0.30;;;0.30;;
22983;SDS011;11658;48.908;9.140;2023-01-16T19:14:49;0.30;;;0.30;;
22983;SDS011;11658;48.908;9.140;2023-01-16T19:17:16;0.83;;;0.40;;
22983;SDS011;11658;48.908;9.140;2023-01-16T19:19:42;0.40;;;0.40;;
22983;SDS011;11658;48.908;9.140;2023-01-16T19:22:07;0.37;;;0.37;;
22983;SDS011;11658;48.908;9.140;2023-01-16T19:24:33;0.30;;;0.30;;
22983;SDS011;11658;48.908;9.140;2023-01-16T19:27:01;0.50;;;0.40;;
22983;SDS011;11658;48.908;9.140;2023-01-16T19:29:27;1.30;;;0.73;;
22983;SDS011;11658;48.908;9.140;2023-01-16T19:31:54;0.83;;;0.63;;
22983;SDS011;11658;48.908;9.140;2023-01-16T19:34:21;0.80;;;0.53;;
22983;SDS011;11658;48.908;9.140;2023-01-16T19:36:50;0.40;;;0.40;;
22983;SDS011;11658;48.908;9.140;2023-01-16T19:39:16;1.10;;;0.73;;
22983;SDS011;11658;48.908;9.140;2023-01-16T19:41:42;0.83;;;0.70;;
22983;SDS011;11658;48.908;9.140;2023-01-16T19:44:26;0.57;;;0.40;;
22983;SDS011;11658;48.908;9.140;2023-01-16T19:47:11;0.50;;;0.50;;
22983;SDS011;11658;48.908;9.140;2023-01-16T19:49:37;0.80;;;0.70;;
22983;SDS011;11658;48.908;9.140;2023-01-16T19:52:05;1.30;;;0.80;;
22983;SDS011;11658;48.908;9.140;2023-01-16T19:54:31;1.00;;;0.80;;
22983;SDS011;11658;48.908;9.140;2023-01-16T19:56:57;0.70;;;0.57;;
22983;SDS011;11658;48.908;9.140;2023-01-16T19:59:23;0.70;;;0.60;;
22983;SDS011;11658;48.908;9.140;2023-01-16T20:02:02;0.60;;;0.60;;
22983;SDS011;11658;48.908;9.140;2023-01-16T20:04:30;1.53;;;0.60;;
22983;SDS011;11658;48.908;9.140;2023-01-16T20:07:02;0.50;;;0.50;;
22983;SDS011;11658;48.908;9.140;2023-01-16T20:09:30;0.67;;;0.60;;
22983;SDS011;11658;48.908;9.140;2023-01-16T20:12:06;0.40;;;0.40;;
22983;SDS011;11658;48.908;9.140;2023-01-16T20:14:52;0.60;;;0.60;;
22983;SDS011;11658;48.908;9.140;2023-01-16T20:17:26;0.60;;;0.50;;
22983;SDS011;11658;48.908;9.140;2023-01-16T20:19:53;1.17;;;0.50;;
22983;SDS011;11658;48.908;9.140;2023-01-16T20:22:20;0.60;;;0.53;;
22983;SDS011;11658;48.908;9.140;2023-01-16T20:24:45;0.80;;;0.57;;
22983;SDS011;11658;48.908;9.140;2023-01-16T20:27:13;0.83;;;0.60;;
22983;SDS011;11658;48.908;9.140;2023-01-16T20:29:39;2.20;;;0.70;;
22983;SDS011;11658;48.908;9.140;2023-01-16T20:32:05;1.23;;;0.70;;
22983;SDS011;11658;48.908;9.140;2023-01-16T20:34:31;0.60;;;0.60;;
22983;SDS011;11658;48.908;9.140;2023-01-16T20:36:59;0.60;;;0.60;;
22983;SDS011;11658;48.908;9.140;2023-01-16T20:39:26;1.00;;;0.80;;
22983;SDS011;11658;48.908;9.140;2023-01-16T20:41:52;0.80;;;0.80;;
22983;SDS011;11658;48.908;9.140;2023-01-16T20:44:36;0.77;;;0.50;;
22983;SDS011;11658;48.908;9.140;2023-01-16T20:47:20;1.63;;;0.93;;
22983;SDS011;11658;48.908;9.140;2023-01-16T20:49:46;1.17;;;0.87;;
22983;SDS011;11658;48.908;9.140;2023-01-16T20:52:14;2.37;;;0.93;;
22983;SDS011;11658;48.908;9.140;2023-01-16T20:54:41;3.37;;;1.40;;
22983;SDS011;11658;48.908;9.140;2023-01-16T20:57:07;1.10;;;0.90;;
22983;SDS011;11658;48.908;9.140;2023-01-16T20:59:33;1.30;;;0.83;;
22983;SDS011;11658;48.908;9.140;2023-01-16T21:01:59;0.93;;;0.70;;
22983;SDS011;11658;48.908;9.140;2023-01-16T21:04:26;1.13;;;0.70;;
22983;SDS011;11658;48.908;9.140;2023-01-16T21:06:54;0.67;;;0.50;;
22983;SDS011;11658;48.908;9.140;2023-01-16T21:09:20;2.40;;;0.53;;
22983;SDS011;11658;48.908;9.140;2023-01-16T21:11:46;1.90;;;0.60;;
22983;SDS011;11658;48.908;9.140;2023-01-16T21:14:30;0.73;;;0.60;;
22983;SDS011;11658;48.908;9.140;2023-01-16T21:16:56;1.53;;;0.83;;
22983;SDS011;11658;48.908;9.140;2023-01-16T21:19:41;3.30;;;0.80;;
22983;SDS011;11658;48.908;9.140;2023-01-16T21:22:27;1.07;;;0.70;;
22983;SDS011;11658;48.908;9.140;2023-01-16T21:24:54;0.50;;;0.47;;